Terminal Aerodrome Forecast
Issued by NWS

Home | Current Version | Previous Version | Text Only | Print | Product List | Glossary On
Versions: 1 2 3 4 5 6 7 8 9 10 11 12 13 14
858
FTUS41 KPBZ 222329
TAFDUJ
TAF
KDUJ 222329Z 2300/2324 23008KT P6SM BKN040
     FM230300 20005KT P6SM BKN025
     FM230600 20005KT P6SM OVC015
     FM230800 20003KT P6SM OVC008
     FM231500 22009KT P6SM VCSH BKN006
     FM232100 24008KT P6SM BKN020=

USA.gov is the U.S. government's official web portal to all federal, state and local government web resources and services.